sensor_id;sensor_type;location;lat;lon;timestamp;P1;durP1;ratioP1;P2;durP2;ratioP2
10643;SDS011;5370;50.132;8.626;2022-10-16T00:00:33;3.90;;;2.23;;
10643;SDS011;5370;50.132;8.626;2022-10-16T00:03:01;3.70;;;3.10;;
10643;SDS011;5370;50.132;8.626;2022-10-16T00:05:28;4.07;;;3.53;;
10643;SDS011;5370;50.132;8.626;2022-10-16T00:07:53;4.97;;;4.13;;
10643;SDS011;5370;50.132;8.626;2022-10-16T00:10:19;9.37;;;3.83;;
10643;SDS011;5370;50.132;8.626;2022-10-16T00:12:45;6.07;;;3.30;;
10643;SDS011;5370;50.132;8.626;2022-10-16T00:15:10;7.50;;;3.30;;
10643;SDS011;5370;50.132;8.626;2022-10-16T00:17:36;4.47;;;3.73;;
10643;SDS011;5370;50.132;8.626;2022-10-16T00:20:01;7.90;;;3.57;;
10643;SDS011;5370;50.132;8.626;2022-10-16T00:22:27;4.53;;;3.43;;
10643;SDS011;5370;50.132;8.626;2022-10-16T00:24:53;4.77;;;3.70;;
10643;SDS011;5370;50.132;8.626;2022-10-16T00:27:19;9.67;;;4.63;;
10643;SDS011;5370;50.132;8.626;2022-10-16T00:29:44;7.33;;;3.77;;
10643;SDS011;5370;50.132;8.626;2022-10-16T00:32:14;5.27;;;3.87;;
10643;SDS011;5370;50.132;8.626;2022-10-16T00:34:39;8.83;;;3.97;;
10643;SDS011;5370;50.132;8.626;2022-10-16T00:37:05;6.53;;;4.30;;
10643;SDS011;5370;50.132;8.626;2022-10-16T00:39:30;4.97;;;3.90;;
10643;SDS011;5370;50.132;8.626;2022-10-16T00:41:56;5.97;;;4.17;;
10643;SDS011;5370;50.132;8.626;2022-10-16T00:47:13;8.20;;;4.00;;
10643;SDS011;5370;50.132;8.626;2022-10-16T00:49:43;8.75;;;4.70;;
10643;SDS011;5370;50.132;8.626;2022-10-16T00:52:09;11.23;;;4.80;;
10643;SDS011;5370;50.132;8.626;2022-10-16T00:54:35;6.77;;;4.80;;
10643;SDS011;5370;50.132;8.626;2022-10-16T00:57:01;6.40;;;4.37;;
10643;SDS011;5370;50.132;8.626;2022-10-16T00:59:37;5.87;;;4.73;;
10643;SDS011;5370;50.132;8.626;2022-10-16T01:02:07;5.70;;;5.03;;
10643;SDS011;5370;50.132;8.626;2022-10-16T01:04:46;5.37;;;4.87;;
10643;SDS011;5370;50.132;8.626;2022-10-16T01:07:16;6.07;;;4.93;;
10643;SDS011;5370;50.132;8.626;2022-10-16T01:10:09;8.93;;;4.63;;
10643;SDS011;5370;50.132;8.626;2022-10-16T01:12:54;8.53;;;5.00;;
10643;SDS011;5370;50.132;8.626;2022-10-16T01:18:28;5.17;;;4.67;;
10643;SDS011;5370;50.132;8.626;2022-10-16T01:21:03;6.38;;;4.97;;
10643;SDS011;5370;50.132;8.626;2022-10-16T01:26:48;9.07;;;5.00;;
10643;SDS011;5370;50.132;8.626;2022-10-16T01:29:29;10.37;;;5.67;;
10643;SDS011;5370;50.132;8.626;2022-10-16T01:37:39;8.05;;;5.55;;
10643;SDS011;5370;50.132;8.626;2022-10-16T01:40:16;8.33;;;4.77;;
10643;SDS011;5370;50.132;8.626;2022-10-16T01:42:46;9.00;;;4.77;;
10643;SDS011;5370;50.132;8.626;2022-10-16T01:45:15;6.30;;;4.60;;
10643;SDS011;5370;50.132;8.626;2022-10-16T01:47:44;12.27;;;5.03;;
10643;SDS011;5370;50.132;8.626;2022-10-16T01:50:11;8.73;;;5.73;;
10643;SDS011;5370;50.132;8.626;2022-10-16T01:52:40;5.13;;;4.60;;
10643;SDS011;5370;50.132;8.626;2022-10-16T01:55:09;8.13;;;5.20;;
10643;SDS011;5370;50.132;8.626;2022-10-16T01:57:39;7.57;;;4.43;;
10643;SDS011;5370;50.132;8.626;2022-10-16T02:00:10;7.57;;;4.63;;
10643;SDS011;5370;50.132;8.626;2022-10-16T02:02:39;6.03;;;4.50;;
10643;SDS011;5370;50.132;8.626;2022-10-16T02:05:53;7.63;;;4.90;;
10643;SDS011;5370;50.132;8.626;2022-10-16T02:07:55;7.70;;;4.40;;
10643;SDS011;5370;50.132;8.626;2022-10-16T02:10:21;4.75;;;3.88;;
10643;SDS011;5370;50.132;8.626;2022-10-16T02:12:49;8.35;;;4.47;;
10643;SDS011;5370;50.132;8.626;2022-10-16T02:15:21;6.82;;;3.85;;
10643;SDS011;5370;50.132;8.626;2022-10-16T02:17:46;6.68;;;4.70;;
10643;SDS011;5370;50.132;8.626;2022-10-16T02:20:12;7.53;;;3.65;;
10643;SDS011;5370;50.132;8.626;2022-10-16T02:22:39;5.85;;;3.30;;
10643;SDS011;5370;50.132;8.626;2022-10-16T02:25:19;5.30;;;3.57;;
10643;SDS011;5370;50.132;8.626;2022-10-16T02:27:59;4.60;;;3.03;;
10643;SDS011;5370;50.132;8.626;2022-10-16T02:30:34;5.70;;;2.97;;
10643;SDS011;5370;50.132;8.626;2022-10-16T02:33:07;5.65;;;3.03;;
10643;SDS011;5370;50.132;8.626;2022-10-16T02:35:35;6.43;;;2.90;;
10643;SDS011;5370;50.132;8.626;2022-10-16T02:38:01;5.53;;;2.78;;
10643;SDS011;5370;50.132;8.626;2022-10-16T02:40:28;5.80;;;2.60;;
10643;SDS011;5370;50.132;8.626;2022-10-16T02:42:54;6.53;;;2.63;;
10643;SDS011;5370;50.132;8.626;2022-10-16T02:45:21;4.87;;;2.40;;
10643;SDS011;5370;50.132;8.626;2022-10-16T02:47:47;2.63;;;2.07;;
10643;SDS011;5370;50.132;8.626;2022-10-16T02:50:13;5.40;;;2.33;;
10643;SDS011;5370;50.132;8.626;2022-10-16T02:52:39;5.40;;;2.10;;
10643;SDS011;5370;50.132;8.626;2022-10-16T02:55:05;5.33;;;2.23;;
10643;SDS011;5370;50.132;8.626;2022-10-16T02:57:30;5.78;;;2.47;;
10643;SDS011;5370;50.132;8.626;2022-10-16T02:59:56;4.75;;;2.20;;
10643;SDS011;5370;50.132;8.626;2022-10-16T03:02:22;2.38;;;1.63;;
10643;SDS011;5370;50.132;8.626;2022-10-16T03:04:48;2.07;;;1.70;;
10643;SDS011;5370;50.132;8.626;2022-10-16T03:07:13;5.10;;;1.77;;
10643;SDS011;5370;50.132;8.626;2022-10-16T03:09:39;5.00;;;1.97;;
10643;SDS011;5370;50.132;8.626;2022-10-16T03:12:04;5.70;;;1.83;;
10643;SDS011;5370;50.132;8.626;2022-10-16T03:14:30;2.33;;;1.80;;
10643;SDS011;5370;50.132;8.626;2022-10-16T03:16:55;2.03;;;1.83;;
10643;SDS011;5370;50.132;8.626;2022-10-16T03:19:21;5.43;;;1.90;;
10643;SDS011;5370;50.132;8.626;2022-10-16T03:21:47;2.63;;;1.73;;
10643;SDS011;5370;50.132;8.626;2022-10-16T03:24:12;3.30;;;2.03;;
10643;SDS011;5370;50.132;8.626;2022-10-16T03:26:38;1.97;;;1.53;;
10643;SDS011;5370;50.132;8.626;2022-10-16T03:29:04;4.63;;;2.10;;
10643;SDS011;5370;50.132;8.626;2022-10-16T03:31:30;4.23;;;1.70;;
10643;SDS011;5370;50.132;8.626;2022-10-16T03:33:55;3.93;;;1.80;;
10643;SDS011;5370;50.132;8.626;2022-10-16T03:36:21;3.40;;;1.93;;
10643;SDS011;5370;50.132;8.626;2022-10-16T03:38:47;3.60;;;2.17;;
10643;SDS011;5370;50.132;8.626;2022-10-16T03:41:12;3.50;;;2.07;;
10643;SDS011;5370;50.132;8.626;2022-10-16T03:43:38;3.90;;;1.73;;
10643;SDS011;5370;50.132;8.626;2022-10-16T03:46:04;7.43;;;1.83;;
10643;SDS011;5370;50.132;8.626;2022-10-16T03:48:29;6.83;;;1.93;;
10643;SDS011;5370;50.132;8.626;2022-10-16T03:50:55;5.67;;;2.07;;
10643;SDS011;5370;50.132;8.626;2022-10-16T03:53:20;3.13;;;1.93;;
10643;SDS011;5370;50.132;8.626;2022-10-16T03:55:46;4.50;;;1.70;;
10643;SDS011;5370;50.132;8.626;2022-10-16T03:58:12;4.37;;;1.90;;
10643;SDS011;5370;50.132;8.626;2022-10-16T04:00:46;3.30;;;1.90;;
10643;SDS011;5370;50.132;8.626;2022-10-16T04:03:12;3.60;;;2.20;;
10643;SDS011;5370;50.132;8.626;2022-10-16T04:05:38;2.97;;;2.10;;
10643;SDS011;5370;50.132;8.626;2022-10-16T04:08:04;4.57;;;1.97;;
10643;SDS011;5370;50.132;8.626;2022-10-16T04:10:29;4.43;;;2.10;;
10643;SDS011;5370;50.132;8.626;2022-10-16T04:12:55;3.53;;;1.83;;
10643;SDS011;5370;50.132;8.626;2022-10-16T04:15:21;4.53;;;2.00;;
10643;SDS011;5370;50.132;8.626;2022-10-16T04:17:47;2.70;;;1.70;;
10643;SDS011;5370;50.132;8.626;2022-10-16T04:20:13;3.77;;;2.10;;
10643;SDS011;5370;50.132;8.626;2022-10-16T04:22:39;3.70;;;1.90;;
10643;SDS011;5370;50.132;8.626;2022-10-16T04:25:04;2.23;;;2.03;;
10643;SDS011;5370;50.132;8.626;2022-10-16T04:27:30;2.80;;;1.90;;
10643;SDS011;5370;50.132;8.626;2022-10-16T04:29:56;3.80;;;1.80;;
10643;SDS011;5370;50.132;8.626;2022-10-16T04:32:22;6.57;;;1.83;;
10643;SDS011;5370;50.132;8.626;2022-10-16T04:34:48;3.40;;;1.80;;
10643;SDS011;5370;50.132;8.626;2022-10-16T04:37:13;2.40;;;2.03;;
10643;SDS011;5370;50.132;8.626;2022-10-16T04:39:39;5.87;;;2.10;;
10643;SDS011;5370;50.132;8.626;2022-10-16T04:42:04;2.10;;;1.90;;
10643;SDS011;5370;50.132;8.626;2022-10-16T04:44:30;2.13;;;1.93;;
10643;SDS011;5370;50.132;8.626;2022-10-16T04:46:56;4.47;;;2.27;;
10643;SDS011;5370;50.132;8.626;2022-10-16T04:49:21;3.17;;;1.90;;
10643;SDS011;5370;50.132;8.626;2022-10-16T04:51:47;3.47;;;1.90;;
10643;SDS011;5370;50.132;8.626;2022-10-16T04:54:12;2.70;;;1.93;;
10643;SDS011;5370;50.132;8.626;2022-10-16T04:56:38;3.57;;;1.77;;
10643;SDS011;5370;50.132;8.626;2022-10-16T04:59:11;7.47;;;2.00;;
10643;SDS011;5370;50.132;8.626;2022-10-16T05:01:37;4.30;;;1.83;;
10643;SDS011;5370;50.132;8.626;2022-10-16T05:04:03;2.00;;;1.90;;
10643;SDS011;5370;50.132;8.626;2022-10-16T05:06:29;2.27;;;2.00;;
10643;SDS011;5370;50.132;8.626;2022-10-16T05:08:54;2.27;;;2.07;;
10643;SDS011;5370;50.132;8.626;2022-10-16T05:11:20;2.67;;;2.47;;
10643;SDS011;5370;50.132;8.626;2022-10-16T05:13:45;5.13;;;2.33;;
10643;SDS011;5370;50.132;8.626;2022-10-16T05:16:11;2.27;;;2.07;;
10643;SDS011;5370;50.132;8.626;2022-10-16T05:18:37;2.50;;;2.30;;
10643;SDS011;5370;50.132;8.626;2022-10-16T05:21:02;3.70;;;2.07;;
10643;SDS011;5370;50.132;8.626;2022-10-16T05:23:28;3.43;;;2.20;;
10643;SDS011;5370;50.132;8.626;2022-10-16T05:25:54;2.33;;;2.13;;
10643;SDS011;5370;50.132;8.626;2022-10-16T05:28:23;3.17;;;2.20;;
10643;SDS011;5370;50.132;8.626;2022-10-16T05:30:49;4.63;;;2.30;;
10643;SDS011;5370;50.132;8.626;2022-10-16T05:33:15;4.33;;;2.60;;
10643;SDS011;5370;50.132;8.626;2022-10-16T05:35:40;3.70;;;2.40;;
10643;SDS011;5370;50.132;8.626;2022-10-16T05:38:06;2.53;;;2.33;;
10643;SDS011;5370;50.132;8.626;2022-10-16T05:40:31;3.53;;;2.50;;
10643;SDS011;5370;50.132;8.626;2022-10-16T05:42:57;6.60;;;2.80;;
10643;SDS011;5370;50.132;8.626;2022-10-16T05:45:22;6.90;;;2.70;;
10643;SDS011;5370;50.132;8.626;2022-10-16T05:47:48;2.60;;;2.40;;
10643;SDS011;5370;50.132;8.626;2022-10-16T05:50:14;3.70;;;2.60;;
10643;SDS011;5370;50.132;8.626;2022-10-16T05:52:39;3.43;;;2.97;;
10643;SDS011;5370;50.132;8.626;2022-10-16T05:55:05;3.20;;;2.90;;
10643;SDS011;5370;50.132;8.626;2022-10-16T05:57:31;7.57;;;3.70;;
10643;SDS011;5370;50.132;8.626;2022-10-16T05:59:56;4.03;;;3.47;;
10643;SDS011;5370;50.132;8.626;2022-10-16T06:02:22;6.37;;;3.87;;
10643;SDS011;5370;50.132;8.626;2022-10-16T06:04:47;5.33;;;2.37;;
10643;SDS011;5370;50.132;8.626;2022-10-16T06:07:13;6.90;;;2.40;;
10643;SDS011;5370;50.132;8.626;2022-10-16T06:09:38;6.43;;;1.80;;
10643;SDS011;5370;50.132;8.626;2022-10-16T06:12:04;3.60;;;1.57;;
10643;SDS011;5370;50.132;8.626;2022-10-16T06:14:29;3.40;;;1.80;;
10643;SDS011;5370;50.132;8.626;2022-10-16T06:16:55;2.17;;;1.97;;
10643;SDS011;5370;50.132;8.626;2022-10-16T06:19:20;4.23;;;2.00;;
10643;SDS011;5370;50.132;8.626;2022-10-16T06:21:46;5.23;;;2.73;;
10643;SDS011;5370;50.132;8.626;2022-10-16T06:24:11;3.13;;;1.80;;
10643;SDS011;5370;50.132;8.626;2022-10-16T06:26:37;2.30;;;2.00;;
10643;SDS011;5370;50.132;8.626;2022-10-16T06:29:03;3.43;;;1.90;;
10643;SDS011;5370;50.132;8.626;2022-10-16T06:31:29;4.63;;;2.40;;
10643;SDS011;5370;50.132;8.626;2022-10-16T06:33:58;2.53;;;1.60;;
10643;SDS011;5370;50.132;8.626;2022-10-16T06:36:24;3.17;;;2.20;;
10643;SDS011;5370;50.132;8.626;2022-10-16T06:38:50;5.77;;;2.57;;
10643;SDS011;5370;50.132;8.626;2022-10-16T06:41:20;4.07;;;2.20;;
10643;SDS011;5370;50.132;8.626;2022-10-16T06:43:47;3.50;;;2.47;;
10643;SDS011;5370;50.132;8.626;2022-10-16T06:46:14;3.30;;;1.90;;
10643;SDS011;5370;50.132;8.626;2022-10-16T06:48:41;2.43;;;2.00;;
10643;SDS011;5370;50.132;8.626;2022-10-16T06:53:40;3.30;;;1.70;;
10643;SDS011;5370;50.132;8.626;2022-10-16T06:56:18;3.38;;;2.00;;
10643;SDS011;5370;50.132;8.626;2022-10-16T06:58:46;3.73;;;2.47;;
10643;SDS011;5370;50.132;8.626;2022-10-16T07:01:12;4.03;;;1.90;;
10643;SDS011;5370;50.132;8.626;2022-10-16T07:03:39;3.30;;;2.47;;
10643;SDS011;5370;50.132;8.626;2022-10-16T07:06:07;2.83;;;2.00;;
10643;SDS011;5370;50.132;8.626;2022-10-16T07:08:34;4.83;;;2.10;;
10643;SDS011;5370;50.132;8.626;2022-10-16T07:11:02;4.30;;;1.92;;
10643;SDS011;5370;50.132;8.626;2022-10-16T07:13:31;2.15;;;1.80;;
10643;SDS011;5370;50.132;8.626;2022-10-16T07:16:03;4.10;;;1.90;;
10643;SDS011;5370;50.132;8.626;2022-10-16T07:18:30;2.73;;;2.30;;
10643;SDS011;5370;50.132;8.626;2022-10-16T07:21:02;7.23;;;2.93;;
10643;SDS011;5370;50.132;8.626;2022-10-16T07:23:29;4.77;;;2.10;;
10643;SDS011;5370;50.132;8.626;2022-10-16T07:25:54;5.63;;;1.95;;
10643;SDS011;5370;50.132;8.626;2022-10-16T07:28:20;2.72;;;1.70;;
10643;SDS011;5370;50.132;8.626;2022-10-16T07:30:46;3.00;;;1.93;;
10643;SDS011;5370;50.132;8.626;2022-10-16T07:33:11;3.50;;;1.70;;
10643;SDS011;5370;50.132;8.626;2022-10-16T07:35:37;5.68;;;2.00;;
10643;SDS011;5370;50.132;8.626;2022-10-16T07:38:02;4.03;;;2.30;;
10643;SDS011;5370;50.132;8.626;2022-10-16T07:40:28;3.40;;;1.83;;
10643;SDS011;5370;50.132;8.626;2022-10-16T07:42:53;7.37;;;2.93;;
10643;SDS011;5370;50.132;8.626;2022-10-16T07:45:19;2.10;;;1.95;;
10643;SDS011;5370;50.132;8.626;2022-10-16T07:47:44;6.07;;;2.03;;
10643;SDS011;5370;50.132;8.626;2022-10-16T07:50:10;4.97;;;2.22;;
10643;SDS011;5370;50.132;8.626;2022-10-16T07:52:35;4.20;;;2.63;;
10643;SDS011;5370;50.132;8.626;2022-10-16T07:55:01;4.78;;;2.67;;
10643;SDS011;5370;50.132;8.626;2022-10-16T07:57:26;6.65;;;2.90;;
10643;SDS011;5370;50.132;8.626;2022-10-16T07:59:52;6.38;;;3.28;;
10643;SDS011;5370;50.132;8.626;2022-10-16T08:02:17;7.00;;;3.83;;
10643;SDS011;5370;50.132;8.626;2022-10-16T08:04:43;5.70;;;3.92;;
10643;SDS011;5370;50.132;8.626;2022-10-16T08:07:11;3.45;;;2.83;;
10643;SDS011;5370;50.132;8.626;2022-10-16T08:09:36;3.10;;;2.72;;
10643;SDS011;5370;50.132;8.626;2022-10-16T08:12:02;3.08;;;2.50;;
10643;SDS011;5370;50.132;8.626;2022-10-16T08:14:29;7.53;;;2.90;;
10643;SDS011;5370;50.132;8.626;2022-10-16T08:16:54;5.25;;;2.70;;
10643;SDS011;5370;50.132;8.626;2022-10-16T08:19:20;5.93;;;3.75;;
10643;SDS011;5370;50.132;8.626;2022-10-16T08:21:48;5.32;;;3.17;;
10643;SDS011;5370;50.132;8.626;2022-10-16T08:24:13;4.90;;;3.20;;
10643;SDS011;5370;50.132;8.626;2022-10-16T08:26:39;4.35;;;3.17;;
10643;SDS011;5370;50.132;8.626;2022-10-16T08:29:04;4.38;;;3.33;;
10643;SDS011;5370;50.132;8.626;2022-10-16T08:31:30;3.28;;;3.00;;
10643;SDS011;5370;50.132;8.626;2022-10-16T08:33:55;4.40;;;3.10;;
10643;SDS011;5370;50.132;8.626;2022-10-16T08:36:21;4.53;;;4.07;;
10643;SDS011;5370;50.132;8.626;2022-10-16T08:38:47;5.72;;;3.85;;
10643;SDS011;5370;50.132;8.626;2022-10-16T08:41:29;5.22;;;3.58;;
10643;SDS011;5370;50.132;8.626;2022-10-16T08:44:10;4.25;;;3.50;;
10643;SDS011;5370;50.132;8.626;2022-10-16T08:46:58;4.35;;;3.67;;
10643;SDS011;5370;50.132;8.626;2022-10-16T08:49:37;5.40;;;3.88;;
10643;SDS011;5370;50.132;8.626;2022-10-16T08:52:10;7.72;;;4.35;;
10643;SDS011;5370;50.132;8.626;2022-10-16T08:54:41;4.60;;;3.97;;
10643;SDS011;5370;50.132;8.626;2022-10-16T08:57:12;5.43;;;3.65;;
10643;SDS011;5370;50.132;8.626;2022-10-16T08:59:38;5.18;;;3.60;;
10643;SDS011;5370;50.132;8.626;2022-10-16T09:02:12;4.10;;;3.50;;
10643;SDS011;5370;50.132;8.626;2022-10-16T09:07:21;5.25;;;3.83;;
10643;SDS011;5370;50.132;8.626;2022-10-16T09:10:11;7.18;;;3.67;;
10643;SDS011;5370;50.132;8.626;2022-10-16T09:18:27;5.20;;;3.90;;
10643;SDS011;5370;50.132;8.626;2022-10-16T09:23:49;4.40;;;3.70;;
10643;SDS011;5370;50.132;8.626;2022-10-16T09:26:15;5.70;;;4.32;;
10643;SDS011;5370;50.132;8.626;2022-10-16T09:28:44;5.95;;;3.83;;
10643;SDS011;5370;50.132;8.626;2022-10-16T09:31:12;4.30;;;3.90;;
10643;SDS011;5370;50.132;8.626;2022-10-16T09:33:41;5.47;;;4.07;;
10643;SDS011;5370;50.132;8.626;2022-10-16T09:36:08;8.20;;;5.10;;
10643;SDS011;5370;50.132;8.626;2022-10-16T09:38:36;6.43;;;4.35;;
10643;SDS011;5370;50.132;8.626;2022-10-16T09:41:02;9.07;;;4.22;;
10643;SDS011;5370;50.132;8.626;2022-10-16T09:46:25;4.55;;;3.60;;
10643;SDS011;5370;50.132;8.626;2022-10-16T09:48:54;6.80;;;3.92;;
10643;SDS011;5370;50.132;8.626;2022-10-16T09:51:22;11.13;;;4.28;;
10643;SDS011;5370;50.132;8.626;2022-10-16T09:53:56;6.47;;;3.78;;
10643;SDS011;5370;50.132;8.626;2022-10-16T09:56:32;4.53;;;3.72;;
10643;SDS011;5370;50.132;8.626;2022-10-16T09:59:17;3.78;;;3.08;;
10643;SDS011;5370;50.132;8.626;2022-10-16T10:01:44;5.13;;;3.13;;
10643;SDS011;5370;50.132;8.626;2022-10-16T10:04:16;4.88;;;3.33;;
10643;SDS011;5370;50.132;8.626;2022-10-16T10:06:46;4.10;;;3.53;;
10643;SDS011;5370;50.132;8.626;2022-10-16T10:09:26;8.20;;;5.72;;
10643;SDS011;5370;50.132;8.626;2022-10-16T10:11:56;6.45;;;5.18;;
10643;SDS011;5370;50.132;8.626;2022-10-16T10:19:29;10.13;;;4.93;;
10643;SDS011;5370;50.132;8.626;2022-10-16T10:22:10;5.35;;;3.50;;
10643;SDS011;5370;50.132;8.626;2022-10-16T10:24:56;4.85;;;2.90;;
10643;SDS011;5370;50.132;8.626;2022-10-16T10:32:35;4.22;;;2.97;;
10643;SDS011;5370;50.132;8.626;2022-10-16T10:35:07;5.68;;;3.00;;
10643;SDS011;5370;50.132;8.626;2022-10-16T10:38:02;6.55;;;4.00;;
10643;SDS011;5370;50.132;8.626;2022-10-16T10:44:11;3.88;;;2.88;;
10643;SDS011;5370;50.132;8.626;2022-10-16T10:46:57;5.35;;;2.25;;
10643;SDS011;5370;50.132;8.626;2022-10-16T11:04:01;3.15;;;2.00;;
10643;SDS011;5370;50.132;8.626;2022-10-16T11:09:13;8.82;;;3.28;;
10643;SDS011;5370;50.132;8.626;2022-10-16T11:11:53;5.20;;;4.13;;
10643;SDS011;5370;50.132;8.626;2022-10-16T11:14:26;5.80;;;5.20;;
10643;SDS011;5370;50.132;8.626;2022-10-16T11:17:01;5.30;;;4.53;;
10643;SDS011;5370;50.132;8.626;2022-10-16T11:25:30;7.38;;;5.32;;
10643;SDS011;5370;50.132;8.626;2022-10-16T11:38:44;6.32;;;5.70;;
10643;SDS011;5370;50.132;8.626;2022-10-16T11:41:35;7.00;;;6.25;;
10643;SDS011;5370;50.132;8.626;2022-10-16T11:44:09;8.85;;;6.55;;
10643;SDS011;5370;50.132;8.626;2022-10-16T11:46:55;8.07;;;5.85;;
10643;SDS011;5370;50.132;8.626;2022-10-16T11:49:32;7.57;;;5.28;;
10643;SDS011;5370;50.132;8.626;2022-10-16T11:54:57;6.97;;;4.93;;
10643;SDS011;5370;50.132;8.626;2022-10-16T11:57:31;5.93;;;5.30;;
10643;SDS011;5370;50.132;8.626;2022-10-16T12:00:05;6.03;;;5.45;;
10643;SDS011;5370;50.132;8.626;2022-10-16T12:08:13;5.97;;;5.38;;
10643;SDS011;5370;50.132;8.626;2022-10-16T12:10:41;5.82;;;4.63;;
10643;SDS011;5370;50.132;8.626;2022-10-16T12:13:28;4.85;;;4.47;;
10643;SDS011;5370;50.132;8.626;2022-10-16T12:18:31;3.58;;;3.28;;
10643;SDS011;5370;50.132;8.626;2022-10-16T12:20:57;4.00;;;3.70;;
10643;SDS011;5370;50.132;8.626;2022-10-16T12:23:24;2.72;;;2.28;;
10643;SDS011;5370;50.132;8.626;2022-10-16T12:25:54;3.38;;;2.58;;
10643;SDS011;5370;50.132;8.626;2022-10-16T12:28:22;3.28;;;2.38;;
10643;SDS011;5370;50.132;8.626;2022-10-16T12:31:02;3.72;;;1.92;;
10643;SDS011;5370;50.132;8.626;2022-10-16T12:33:32;2.78;;;1.90;;
10643;SDS011;5370;50.132;8.626;2022-10-16T12:35:59;5.72;;;1.52;;
10643;SDS011;5370;50.132;8.626;2022-10-16T12:38:38;2.75;;;1.85;;
10643;SDS011;5370;50.132;8.626;2022-10-16T12:41:24;5.63;;;2.42;;
10643;SDS011;5370;50.132;8.626;2022-10-16T12:43:52;2.38;;;2.28;;
10643;SDS011;5370;50.132;8.626;2022-10-16T12:48:44;3.92;;;2.17;;
10643;SDS011;5370;50.132;8.626;2022-10-16T12:51:11;3.10;;;2.47;;
10643;SDS011;5370;50.132;8.626;2022-10-16T12:53:45;1.65;;;1.52;;
10643;SDS011;5370;50.132;8.626;2022-10-16T12:56:19;4.22;;;1.58;;
10643;SDS011;5370;50.132;8.626;2022-10-16T12:59:01;2.25;;;1.58;;
10643;SDS011;5370;50.132;8.626;2022-10-16T13:01:42;1.98;;;1.50;;
10643;SDS011;5370;50.132;8.626;2022-10-16T13:04:22;2.25;;;1.17;;
10643;SDS011;5370;50.132;8.626;2022-10-16T13:07:03;4.80;;;1.80;;
10643;SDS011;5370;50.132;8.626;2022-10-16T13:09:54;4.15;;;1.73;;
10643;SDS011;5370;50.132;8.626;2022-10-16T13:18:29;2.00;;;1.40;;
10643;SDS011;5370;50.132;8.626;2022-10-16T13:21:04;1.60;;;1.50;;
10643;SDS011;5370;50.132;8.626;2022-10-16T13:24:02;2.10;;;1.90;;
10643;SDS011;5370;50.132;8.626;2022-10-16T13:29:38;4.43;;;1.38;;
10643;SDS011;5370;50.132;8.626;2022-10-16T13:32:09;4.50;;;1.98;;
10643;SDS011;5370;50.132;8.626;2022-10-16T13:34:44;2.03;;;1.70;;
10643;SDS011;5370;50.132;8.626;2022-10-16T13:37:24;1.48;;;1.35;;
10643;SDS011;5370;50.132;8.626;2022-10-16T13:39:50;3.03;;;1.27;;
10643;SDS011;5370;50.132;8.626;2022-10-16T13:44:53;1.42;;;1.33;;
10643;SDS011;5370;50.132;8.626;2022-10-16T13:47:20;1.55;;;1.45;;
10643;SDS011;5370;50.132;8.626;2022-10-16T13:52:27;5.40;;;3.58;;
10643;SDS011;5370;50.132;8.626;2022-10-16T13:54:52;2.00;;;1.08;;
10643;SDS011;5370;50.132;8.626;2022-10-16T13:57:18;2.85;;;1.35;;
10643;SDS011;5370;50.132;8.626;2022-10-16T13:59:47;2.30;;;1.10;;
10643;SDS011;5370;50.132;8.626;2022-10-16T14:02:15;4.75;;;3.42;;
10643;SDS011;5370;50.132;8.626;2022-10-16T14:05:00;2.70;;;2.47;;
10643;SDS011;5370;50.132;8.626;2022-10-16T14:07:28;2.88;;;1.30;;
10643;SDS011;5370;50.132;8.626;2022-10-16T14:09:56;3.88;;;2.55;;
10643;SDS011;5370;50.132;8.626;2022-10-16T14:12:30;5.45;;;4.05;;
10643;SDS011;5370;50.132;8.626;2022-10-16T14:14:56;1.80;;;1.67;;
10643;SDS011;5370;50.132;8.626;2022-10-16T14:17:31;6.07;;;3.03;;
10643;SDS011;5370;50.132;8.626;2022-10-16T14:20:00;1.70;;;1.27;;
10643;SDS011;5370;50.132;8.626;2022-10-16T14:22:36;3.67;;;1.63;;
10643;SDS011;5370;50.132;8.626;2022-10-16T14:25:15;2.38;;;1.67;;
10643;SDS011;5370;50.132;8.626;2022-10-16T14:27:45;1.88;;;1.77;;
10643;SDS011;5370;50.132;8.626;2022-10-16T14:30:22;1.42;;;1.33;;
10643;SDS011;5370;50.132;8.626;2022-10-16T14:37:51;2.17;;;1.98;;
10643;SDS011;5370;50.132;8.626;2022-10-16T14:40:23;2.13;;;2.03;;
10643;SDS011;5370;50.132;8.626;2022-10-16T14:42:50;4.57;;;2.15;;
10643;SDS011;5370;50.132;8.626;2022-10-16T14:45:20;2.30;;;2.10;;
10643;SDS011;5370;50.132;8.626;2022-10-16T14:48:00;2.72;;;1.90;;
10643;SDS011;5370;50.132;8.626;2022-10-16T14:50:29;4.00;;;2.17;;
10643;SDS011;5370;50.132;8.626;2022-10-16T14:52:55;3.00;;;2.08;;
10643;SDS011;5370;50.132;8.626;2022-10-16T14:55:24;1.92;;;1.45;;
10643;SDS011;5370;50.132;8.626;2022-10-16T14:57:50;2.08;;;1.80;;
10643;SDS011;5370;50.132;8.626;2022-10-16T15:00:17;3.00;;;2.20;;
10643;SDS011;5370;50.132;8.626;2022-10-16T15:02:45;2.97;;;1.63;;
10643;SDS011;5370;50.132;8.626;2022-10-16T15:07:41;4.22;;;2.10;;
10643;SDS011;5370;50.132;8.626;2022-10-16T15:10:07;4.63;;;2.00;;
10643;SDS011;5370;50.132;8.626;2022-10-16T15:12:33;5.40;;;2.20;;
10643;SDS011;5370;50.132;8.626;2022-10-16T15:14:58;5.85;;;2.45;;
10643;SDS011;5370;50.132;8.626;2022-10-16T15:17:24;2.58;;;2.33;;
10643;SDS011;5370;50.132;8.626;2022-10-16T15:19:49;6.07;;;2.42;;
10643;SDS011;5370;50.132;8.626;2022-10-16T15:22:16;6.80;;;2.03;;
10643;SDS011;5370;50.132;8.626;2022-10-16T15:24:42;3.00;;;2.67;;
10643;SDS011;5370;50.132;8.626;2022-10-16T15:27:08;3.53;;;2.10;;
10643;SDS011;5370;50.132;8.626;2022-10-16T15:29:33;4.53;;;3.17;;
10643;SDS011;5370;50.132;8.626;2022-10-16T15:31:59;1.88;;;1.55;;
10643;SDS011;5370;50.132;8.626;2022-10-16T15:34:24;3.88;;;1.80;;
10643;SDS011;5370;50.132;8.626;2022-10-16T15:36:50;3.63;;;3.13;;
10643;SDS011;5370;50.132;8.626;2022-10-16T15:39:16;3.58;;;3.10;;
10643;SDS011;5370;50.132;8.626;2022-10-16T15:41:44;2.50;;;2.15;;
10643;SDS011;5370;50.132;8.626;2022-10-16T15:44:15;6.45;;;2.10;;
10643;SDS011;5370;50.132;8.626;2022-10-16T15:46:41;2.63;;;2.28;;
10643;SDS011;5370;50.132;8.626;2022-10-16T15:49:07;3.10;;;2.03;;
10643;SDS011;5370;50.132;8.626;2022-10-16T15:51:34;4.43;;;2.80;;
10643;SDS011;5370;50.132;8.626;2022-10-16T15:54:03;3.83;;;2.10;;
10643;SDS011;5370;50.132;8.626;2022-10-16T15:56:29;3.92;;;2.55;;
10643;SDS011;5370;50.132;8.626;2022-10-16T15:58:58;2.42;;;2.22;;
10643;SDS011;5370;50.132;8.626;2022-10-16T16:01:23;3.60;;;2.08;;
10643;SDS011;5370;50.132;8.626;2022-10-16T16:03:52;6.95;;;2.95;;
10643;SDS011;5370;50.132;8.626;2022-10-16T16:06:18;3.38;;;2.90;;
10643;SDS011;5370;50.132;8.626;2022-10-16T16:08:43;5.78;;;3.35;;
10643;SDS011;5370;50.132;8.626;2022-10-16T16:11:10;5.25;;;3.00;;
10643;SDS011;5370;50.132;8.626;2022-10-16T16:13:36;8.02;;;3.97;;
10643;SDS011;5370;50.132;8.626;2022-10-16T16:16:10;7.00;;;4.20;;
10643;SDS011;5370;50.132;8.626;2022-10-16T16:18:37;8.88;;;4.85;;
10643;SDS011;5370;50.132;8.626;2022-10-16T16:21:04;8.45;;;4.15;;
10643;SDS011;5370;50.132;8.626;2022-10-16T16:23:30;6.05;;;3.75;;
10643;SDS011;5370;50.132;8.626;2022-10-16T16:26:03;6.40;;;4.03;;
10643;SDS011;5370;50.132;8.626;2022-10-16T16:28:31;8.05;;;4.60;;
10643;SDS011;5370;50.132;8.626;2022-10-16T16:30:57;6.97;;;4.05;;
10643;SDS011;5370;50.132;8.626;2022-10-16T16:33:23;7.57;;;4.55;;
10643;SDS011;5370;50.132;8.626;2022-10-16T16:35:49;7.82;;;4.40;;
10643;SDS011;5370;50.132;8.626;2022-10-16T16:38:14;8.13;;;5.18;;
10643;SDS011;5370;50.132;8.626;2022-10-16T16:40:40;8.38;;;4.55;;
10643;SDS011;5370;50.132;8.626;2022-10-16T16:43:05;9.18;;;5.28;;
10643;SDS011;5370;50.132;8.626;2022-10-16T16:45:34;7.05;;;5.03;;
10643;SDS011;5370;50.132;8.626;2022-10-16T16:48:00;8.35;;;5.85;;
10643;SDS011;5370;50.132;8.626;2022-10-16T16:50:26;6.50;;;4.88;;
10643;SDS011;5370;50.132;8.626;2022-10-16T16:52:51;7.32;;;4.88;;
10643;SDS011;5370;50.132;8.626;2022-10-16T16:55:17;5.55;;;4.68;;
10643;SDS011;5370;50.132;8.626;2022-10-16T16:57:42;5.90;;;4.75;;
10643;SDS011;5370;50.132;8.626;2022-10-16T17:00:08;6.10;;;4.50;;
10643;SDS011;5370;50.132;8.626;2022-10-16T17:02:34;15.32;;;4.97;;
10643;SDS011;5370;50.132;8.626;2022-10-16T17:04:59;7.68;;;5.22;;